Time;durP1;ratioP1;P1;durP2;ratioP2;P2;SDS_P1;SDS_P2;PMS_P1;PMS_P2;Temp;Humidity;BMP_temperature;BMP_pressure;BME280_temperature;BME280_humidity;BME280_pressure;Samples;Min_cycle;Max_cycle;Signal;HPM_P1;HPM_P2
2022/11/11 00:01:14;;;;;;;6.32;2.38;;;9.80;99.90;;;-144.05;65.53;125687.94;5017927;28;20041;-78
2022/11/11 00:03:41;;;;;;;4.47;2.40;;;9.80;99.90;;;-144.05;65.82;125687.94;5017875;28;20061;-79
2022/11/11 00:06:15;;;;;;;6.20;2.40;;;9.70;99.90;;;-144.05;65.50;125687.94;5017455;28;20033;-79
2022/11/11 00:08:45;;;;;;;8.85;3.13;;;9.80;99.90;;;-144.05;65.46;125687.94;5016515;28;20025;-79
2022/11/11 00:11:13;;;;;;;5.85;2.60;;;9.80;99.90;;;-144.05;65.91;125687.94;5015839;28;20029;-79
2022/11/11 00:13:42;;;;;;;6.40;2.78;;;9.70;99.90;;;-144.05;66.07;125687.94;5016598;28;20030;-79
2022/11/11 00:16:16;;;;;;;9.52;3.60;;;9.60;99.90;;;-144.05;66.56;125687.94;5017557;28;20033;-77
2022/11/11 00:26:47;;;;;;;8.57;2.55;;;9.50;99.90;;;-144.05;68.06;125687.94;5017174;28;20087;-79
2022/11/11 00:29:13;;;;;;;10.05;3.17;;;9.50;99.90;;;-144.05;68.48;125687.94;5017116;28;20041;-78
2022/11/11 00:32:21;;;;;;;14.48;3.47;;;9.40;99.90;;;-144.05;68.89;125687.94;5017131;28;20084;-78
2022/11/11 00:34:25;;;;;;;10.50;3.30;;;9.40;99.90;;;-144.05;68.74;125687.94;5016848;28;20038;-79
2022/11/11 00:36:51;;;;;;;7.25;3.20;;;9.40;99.90;;;-144.05;68.96;125687.94;5016646;28;20061;-79
2022/11/11 00:39:17;;;;;;;9.38;3.30;;;9.40;99.90;;;-144.05;68.77;125687.94;5016290;28;20062;-78
2022/11/11 00:41:43;;;;;;;9.57;3.30;;;9.30;99.90;;;-144.05;68.60;125687.94;5016981;28;20397;-78
2022/11/11 00:44:08;;;;;;;7.15;3.47;;;9.30;99.90;;;-144.05;69.04;125687.94;5017409;28;20053;-79
2022/11/11 00:52:03;;;;;;;5.75;3.53;;;9.20;99.90;;;-144.05;69.34;125687.94;5017261;28;20532;-79
2022/11/11 00:54:29;;;;;;;6.95;2.58;;;9.20;99.90;;;-144.05;69.19;125687.94;5016494;28;20042;-79
2022/11/11 00:56:55;;;;;;;8.30;3.00;;;9.20;99.90;;;-144.05;69.55;125687.94;5017008;28;20038;-78
2022/11/11 00:59:21;;;;;;;6.63;3.00;;;9.10;99.90;;;-144.05;69.50;125687.94;5016488;28;20033;-79
2022/11/11 01:01:47;;;;;;;7.03;3.22;;;9.10;99.90;;;-144.05;69.24;125687.94;5017166;28;20109;-78
2022/11/11 01:04:12;;;;;;;7.15;3.42;;;9.10;99.90;;;-144.05;69.14;125687.94;5016435;28;20037;-79
2022/11/11 01:06:38;;;;;;;8.52;3.33;;;9.20;99.90;;;-144.05;68.80;125687.94;5016507;28;20029;-79
2022/11/11 01:09:07;;;;;;;4.57;2.80;;;9.20;99.90;;;-144.05;69.18;125687.94;5016488;28;20501;-78
2022/11/11 01:11:33;;;;;;;8.98;2.92;;;9.20;99.90;;;-144.05;68.40;125687.94;5017004;28;20034;-79
2022/11/11 01:13:59;;;;;;;7.25;3.72;;;9.20;99.90;;;-144.05;68.54;125687.94;5016811;28;20034;-79
2022/11/11 01:16:26;;;;;;;8.13;3.60;;;9.20;99.90;;;-144.05;68.62;125687.94;5017107;28;20044;-79
2022/11/11 01:18:53;;;;;;;10.20;3.30;;;9.20;99.90;;;-144.05;68.26;125687.94;5015991;28;20044;-77
2022/11/11 01:21:24;;;;;;;7.28;3.00;;;9.20;99.90;;;-144.05;69.04;125687.94;5015799;28;20030;-79
2022/11/11 01:23:52;;;;;;;7.47;3.38;;;9.20;99.90;;;-144.05;68.24;125687.94;4998294;28;20036;-78
2022/11/11 01:26:26;;;;;;;11.57;3.20;;;9.20;99.90;;;-144.05;68.21;125687.94;4998773;28;20030;-78
2022/11/11 01:28:55;;;;;;;6.53;3.75;;;9.10;99.90;;;-144.05;68.78;125687.94;5014286;28;20089;-78
2022/11/11 01:31:25;;;;;;;8.73;3.35;;;9.10;99.90;;;-144.05;68.64;125687.94;5016247;28;20026;-79
2022/11/11 01:33:51;;;;;;;9.25;2.70;;;9.20;99.90;;;-144.05;68.03;125687.94;5015708;28;20057;-78
2022/11/11 01:36:26;;;;;;;9.57;3.22;;;9.20;99.90;;;-144.05;68.43;125687.94;5015452;28;20073;-79
2022/11/11 01:38:57;;;;;;;10.93;3.10;;;9.20;99.90;;;-144.05;68.28;125687.94;5016120;28;20057;-77
2022/11/11 01:41:37;;;;;;;5.45;2.78;;;9.20;99.90;;;-144.05;68.33;125687.94;4998114;28;20034;-78
2022/11/11 01:44:12;;;;;;;8.02;3.00;;;9.20;99.90;;;-144.05;68.24;125687.94;5015910;28;20037;-78
2022/11/11 01:46:59;;;;;;;6.27;2.60;;;9.20;99.90;;;-144.05;68.27;125687.94;4999172;28;20108;-78
2022/11/11 01:49:56;;;;;;;9.38;3.25;;;9.20;99.90;;;-144.05;67.91;125687.94;5014323;28;20022;-79
2022/11/11 01:52:36;;;;;;;4.88;3.15;;;9.20;99.90;;;-144.05;68.24;125687.94;5015877;28;20445;-78
2022/11/11 01:55:21;;;;;;;5.75;2.63;;;9.30;99.90;;;-144.05;68.21;125687.94;5016100;28;20034;-78
2022/11/11 01:57:56;;;;;;;7.38;2.80;;;9.30;99.90;;;-144.05;68.02;125687.94;5016006;28;20041;-79
2022/11/11 02:00:22;;;;;;;7.10;2.78;;;9.30;99.90;;;-144.05;67.55;125687.94;5015850;28;20036;-79
2022/11/11 02:03:08;;;;;;;6.88;2.85;;;9.30;99.90;;;-144.05;67.27;125687.94;5016012;28;20048;-78
2022/11/11 02:05:44;;;;;;;9.80;2.88;;;9.30;99.90;;;-144.05;67.51;125687.94;4998544;28;20366;-79
2022/11/11 02:08:34;;;;;;;8.35;3.00;;;9.30;99.90;;;-144.05;67.81;125687.94;5015416;28;20033;-79
2022/11/11 02:11:10;;;;;;;7.72;2.38;;;9.30;99.90;;;-144.05;67.61;125687.94;5016082;28;20022;-78
2022/11/11 02:16:28;;;;;;;9.38;2.55;;;9.30;99.90;;;-144.05;67.12;125687.94;5013732;28;20117;-79
2022/11/11 02:18:54;;;;;;;5.60;2.67;;;9.30;99.90;;;-144.05;66.61;125687.94;5014608;28;20053;-78
2022/11/11 02:21:43;;;;;;;5.03;2.22;;;9.30;99.90;;;-144.05;66.88;125687.94;5014336;28;20041;-79
2022/11/11 02:24:18;;;;;;;7.97;2.78;;;9.20;99.90;;;-144.05;66.69;125687.94;5014863;28;20022;-79
2022/11/11 02:26:46;;;;;;;4.28;2.00;;;9.20;99.90;;;-144.05;66.99;125687.94;5015388;28;20147;-77
2022/11/11 02:29:19;;;;;;;6.75;2.30;;;9.30;99.90;;;-144.05;66.87;125687.94;5016035;28;20038;-79
2022/11/11 02:31:45;;;;;;;5.35;2.50;;;9.20;99.90;;;-144.05;67.53;125687.94;4997167;28;20075;-78
2022/11/11 02:34:11;;;;;;;7.07;2.55;;;9.10;99.90;;;-144.05;67.20;125687.94;5013746;28;20030;-79
2022/11/11 02:36:39;;;;;;;6.65;2.30;;;9.10;99.90;;;-144.05;67.42;125687.94;5015766;28;20037;-79
2022/11/11 02:39:05;;;;;;;4.53;2.15;;;9.10;99.90;;;-144.05;67.09;125687.94;5015489;28;20030;-79
2022/11/11 02:44:15;;;;;;;4.93;2.30;;;9.10;99.90;;;-144.05;67.47;125687.94;5014681;28;20092;-78
2022/11/11 02:46:41;;;;;;;6.78;2.38;;;9.10;99.90;;;-144.05;67.51;125687.94;5014669;28;20033;-78
2022/11/11 02:49:06;;;;;;;6.72;2.35;;;9.20;99.90;;;-144.05;67.38;125687.94;5015204;28;20088;-79
2022/11/11 02:51:32;;;;;;;7.30;2.85;;;9.20;99.90;;;-144.05;67.00;125687.94;5015035;28;20030;-77
2022/11/11 02:53:58;;;;;;;7.43;2.53;;;9.10;99.90;;;-144.05;66.92;125687.94;5015320;28;20058;-79
2022/11/11 02:59:09;;;;;;;4.72;2.30;;;9.20;99.90;;;-144.05;66.98;125687.94;5015616;28;20036;-78
2022/11/11 03:01:35;;;;;;;14.13;2.58;;;9.20;99.90;;;-144.05;67.40;125687.94;5015932;28;20134;-78
2022/11/11 03:04:00;;;;;;;6.75;2.92;;;9.20;99.90;;;-144.05;67.51;125687.94;5017759;28;20076;-79
2022/11/11 03:06:26;;;;;;;7.13;2.80;;;9.20;99.90;;;-144.05;66.97;125687.94;5000755;28;20026;-79
2022/11/11 03:08:52;;;;;;;6.35;2.65;;;9.20;99.90;;;-144.05;66.85;125687.94;5017553;28;20117;-79
2022/11/11 03:11:27;;;;;;;7.47;2.85;;;9.20;99.90;;;-144.05;67.17;125687.94;5018086;28;20076;-79
2022/11/11 03:13:58;;;;;;;7.07;2.65;;;9.10;99.90;;;-144.05;67.50;125687.94;5018310;28;20104;-77
2022/11/11 03:19:10;;;;;;;5.68;2.47;;;9.10;99.90;;;-144.05;67.27;125687.94;5018675;28;20045;-78
2022/11/11 03:21:36;;;;;;;6.65;3.20;;;9.10;99.90;;;-144.05;67.20;125687.94;5018579;28;20046;-78
2022/11/11 03:24:03;;;;;;;5.53;2.53;;;9.10;99.90;;;-144.05;67.52;125687.94;5018839;28;20042;-79
2022/11/11 03:26:28;;;;;;;6.60;2.90;;;9.00;99.90;;;-144.05;67.39;125687.94;5017145;28;20044;-79
2022/11/11 03:28:55;;;;;;;7.97;2.63;;;9.00;99.90;;;-144.05;67.66;125687.94;5018434;28;20058;-78
2022/11/11 03:31:21;;;;;;;6.22;2.63;;;9.00;99.90;;;-144.05;67.56;125687.94;5017938;28;20033;-78
2022/11/11 03:33:47;;;;;;;6.70;2.53;;;9.00;99.90;;;-144.05;67.67;125687.94;5016865;28;20377;-78
2022/11/11 03:36:13;;;;;;;4.38;2.60;;;9.00;99.90;;;-144.05;67.55;125687.94;5018765;28;20025;-80
2022/11/11 03:38:38;;;;;;;10.75;2.58;;;9.00;99.90;;;-144.05;67.52;125687.94;5018058;28;20033;-79
2022/11/11 03:41:05;;;;;;;5.80;2.58;;;8.90;99.90;;;-144.05;67.66;125687.94;5018471;28;20493;-79
2022/11/11 03:43:34;;;;;;;7.00;2.45;;;8.90;99.90;;;-144.05;67.79;125687.94;5018846;28;20148;-79
2022/11/11 03:46:04;;;;;;;10.32;3.10;;;8.90;99.90;;;-144.05;67.93;125687.94;5019428;28;20026;-79
2022/11/11 03:48:33;;;;;;;7.20;3.13;;;8.90;99.90;;;-144.05;67.59;125687.94;5020338;28;20022;-79
2022/11/11 03:50:59;;;;;;;4.88;2.28;;;8.90;99.90;;;-144.05;67.43;125687.94;5019839;28;20041;-79
2022/11/11 03:53:25;;;;;;;4.55;2.60;;;8.90;99.90;;;-144.05;67.37;125687.94;5019914;28;20037;-79
2022/11/11 03:55:51;;;;;;;4.25;2.53;;;8.90;99.90;;;-144.05;67.26;125687.94;5002219;28;20103;-79
2022/11/11 03:58:18;;;;;;;6.50;2.60;;;8.90;99.90;;;-144.05;67.17;125687.94;5019284;28;20033;-77
2022/11/11 04:00:45;;;;;;;7.25;2.90;;;8.90;99.90;;;-144.05;67.20;125687.94;5002579;28;20025;-77
2022/11/11 04:11:47;;;;;;;5.78;1.80;;;8.80;99.90;;;-144.05;66.75;125687.94;5019188;28;19916;-78
2022/11/11 04:16:58;;;;;;;5.90;2.58;;;8.80;99.90;;;-144.05;67.13;125687.94;5019232;28;20032;-79
2022/11/11 04:22:09;;;;;;;3.65;2.03;;;8.80;99.90;;;-144.05;66.59;125687.94;5020086;28;20068;-78
2022/11/11 04:27:20;;;;;;;9.20;2.20;;;8.80;99.90;;;-144.05;66.59;125687.94;5019296;28;20065;-78
2022/11/11 04:29:47;;;;;;;6.55;2.40;;;8.80;99.90;;;-144.05;66.80;125687.94;5018464;28;20065;-79
2022/11/11 04:32:37;;;;;;;2.35;1.67;;;8.80;99.90;;;-144.05;66.87;125687.94;5017317;28;20505;-77
2022/11/11 04:35:11;;;;;;;5.97;2.05;;;8.80;99.90;;;-144.05;66.94;125687.94;5017260;28;20113;-77
2022/11/11 04:37:50;;;;;;;3.05;2.17;;;8.80;99.90;;;-144.05;66.95;125687.94;5018295;28;20029;-78
2022/11/11 04:43:01;;;;;;;4.63;2.15;;;8.70;99.90;;;-144.05;67.08;125687.94;5018211;28;20069;-79
2022/11/11 04:45:27;;;;;;;4.72;2.30;;;8.70;99.90;;;-144.05;66.90;125687.94;5018343;28;20042;-79
2022/11/11 04:48:08;;;;;;;10.30;2.53;;;8.70;99.90;;;-144.05;66.61;125687.94;5018385;28;20041;-79
2022/11/11 04:50:41;;;;;;;9.38;2.80;;;8.70;99.90;;;-144.05;66.63;125687.94;5018594;28;20049;-79
2022/11/11 04:53:13;;;;;;;3.25;2.42;;;8.80;99.90;;;-144.05;66.70;125687.94;5017634;28;20131;-79
2022/11/11 04:58:33;;;;;;;7.35;2.70;;;8.80;99.90;;;-144.05;66.19;125687.94;4988481;28;20131;-80
2022/11/11 05:00:59;;;;;;;6.78;2.65;;;8.90;99.90;;;-144.05;65.94;125687.94;5019374;28;20022;-79
2022/11/11 05:03:26;;;;;;;8.73;2.40;;;9.00;99.90;;;-144.05;66.11;125687.94;5019660;28;20030;-78
2022/11/11 05:08:57;;;;;;;5.32;2.42;;;9.10;99.90;;;-144.05;65.49;125687.94;5017951;28;20100;-79
2022/11/11 05:11:43;;;;;;;6.55;2.63;;;9.10;99.90;;;-144.05;65.41;125687.94;5016554;28;20113;-78
2022/11/11 05:22:42;;;;;;;5.88;2.30;;;9.00;99.90;;;-144.05;65.70;125687.94;5016737;28;20045;-79
2022/11/11 05:25:29;;;;;;;5.10;2.50;;;9.10;99.90;;;-144.05;65.73;125687.94;5016029;28;20445;-78
2022/11/11 05:27:58;;;;;;;7.78;2.50;;;9.10;99.90;;;-144.05;65.28;125687.94;5016960;28;20018;-76
2022/11/11 05:30:25;;;;;;;6.40;1.90;;;9.00;99.90;;;-144.05;65.59;125687.94;5016759;28;20053;-78
2022/11/11 05:32:54;;;;;;;5.18;2.03;;;9.00;99.90;;;-144.05;65.54;125687.94;5015619;28;20034;-78
2022/11/11 05:35:20;;;;;;;5.22;1.80;;;9.10;99.90;;;-144.05;65.46;125687.94;5015624;28;20029;-79
2022/11/11 05:40:31;;;;;;;3.75;2.03;;;9.20;99.90;;;-144.05;64.79;125687.94;5017404;28;20103;-78
2022/11/11 05:42:56;;;;;;;6.88;2.35;;;9.20;99.90;;;-144.05;64.35;125687.94;4998258;28;20030;-79
2022/11/11 05:45:22;;;;;;;3.47;2.00;;;9.30;99.90;;;-144.05;64.68;125687.94;5016335;28;20032;-78
2022/11/11 05:47:48;;;;;;;5.68;2.50;;;9.30;99.90;;;-144.05;64.11;125687.94;5017545;28;20521;-77
2022/11/11 05:50:15;;;;;;;4.53;1.98;;;9.30;99.90;;;-144.05;64.54;125687.94;5019540;28;20041;-78
2022/11/11 05:52:48;;;;;;;5.57;2.60;;;9.30;99.90;;;-144.05;64.26;125687.94;5017506;28;20037;-79
2022/11/11 05:55:14;;;;;;;3.55;2.47;;;9.30;99.90;;;-144.05;63.72;125687.94;5014372;28;20406;-76
2022/11/11 05:57:40;;;;;;;3.58;2.13;;;9.30;99.90;;;-144.05;63.43;125687.94;5013655;28;20061;-77
2022/11/11 06:00:08;;;;;;;8.32;2.08;;;9.40;99.90;;;-144.05;63.58;125687.94;5014101;28;20482;-75
2022/11/11 06:02:33;;;;;;;9.48;1.95;;;9.40;99.90;;;-144.05;63.18;125687.94;5016794;28;20153;-78
2022/11/11 06:04:59;;;;;;;4.03;2.38;;;9.30;99.90;;;-144.05;63.42;125687.94;5016368;28;20296;-80
2022/11/11 06:07:25;;;;;;;12.70;2.88;;;9.30;99.90;;;-144.05;63.26;125687.94;5014800;28;20072;-78
2022/11/11 06:09:51;;;;;;;6.00;2.20;;;9.20;99.90;;;-144.05;63.62;125687.94;5016258;28;20133;-77
2022/11/11 06:12:17;;;;;;;4.95;1.90;;;9.10;99.90;;;-144.05;64.04;125687.94;5015288;28;20061;-77
2022/11/11 06:14:42;;;;;;;6.13;2.60;;;9.10;99.90;;;-144.05;64.35;125687.94;5013720;28;20038;-75
2022/11/11 06:17:08;;;;;;;4.18;2.13;;;9.10;99.90;;;-144.05;64.13;125687.94;5014687;28;20339;-77
2022/11/11 06:19:34;;;;;;;5.90;2.25;;;9.10;99.90;;;-144.05;64.51;125687.94;5015551;28;20041;-75
2022/11/11 06:22:02;;;;;;;6.80;2.30;;;9.00;99.90;;;-144.05;64.46;125687.94;5014951;28;20069;-79
2022/11/11 06:24:28;;;;;;;5.30;2.15;;;9.00;99.90;;;-144.05;64.57;125687.94;4997004;28;20462;-76
2022/11/11 06:26:55;;;;;;;6.20;2.55;;;8.90;99.90;;;-144.05;64.93;125687.94;4997050;28;20030;-76
2022/11/11 06:29:21;;;;;;;3.67;2.47;;;8.90;99.90;;;-144.05;65.16;125687.94;5014586;28;20026;-78
2022/11/11 06:31:47;;;;;;;4.82;1.95;;;8.90;99.90;;;-144.05;64.92;125687.94;5013819;28;20041;-77
2022/11/11 06:34:13;;;;;;;7.32;3.33;;;8.90;99.90;;;-144.05;65.27;125687.94;5015977;28;20033;-79
2022/11/11 06:36:38;;;;;;;5.38;2.40;;;8.80;99.90;;;-144.05;65.50;125687.94;4999209;28;20083;-80
2022/11/11 06:39:04;;;;;;;7.15;2.85;;;8.80;99.90;;;-144.05;65.34;125687.94;5018272;28;20034;-79
2022/11/11 06:41:30;;;;;;;4.63;2.50;;;8.90;99.90;;;-144.05;65.48;125687.94;5021832;28;20022;-77
2022/11/11 06:43:56;;;;;;;8.52;2.97;;;8.90;99.90;;;-144.05;65.46;125687.94;5018153;28;20030;-78
2022/11/11 06:46:25;;;;;;;7.45;3.58;;;8.90;99.90;;;-144.05;65.68;125687.94;5016994;28;20037;-79
2022/11/11 06:48:51;;;;;;;11.30;2.70;;;8.80;99.90;;;-144.05;65.60;125687.94;5025370;28;20026;-79
2022/11/11 06:51:18;;;;;;;6.85;2.28;;;8.90;99.90;;;-144.05;65.94;125687.94;5029643;28;20100;-77
2022/11/11 06:53:44;;;;;;;6.55;2.40;;;9.00;99.90;;;-144.05;65.19;125687.94;5029290;28;20033;-76
2022/11/11 06:56:13;;;;;;;4.95;2.42;;;9.00;99.90;;;-144.05;65.02;125687.94;5027134;28;20089;-78
2022/11/11 06:58:40;;;;;;;5.63;2.67;;;9.10;99.90;;;-144.05;64.99;125687.94;5027006;28;20030;-77
2022/11/11 07:01:08;;;;;;;5.38;2.55;;;9.20;99.90;;;-144.05;64.67;125687.94;5024978;28;20041;-78
2022/11/11 07:03:35;;;;;;;6.25;2.47;;;9.20;99.90;;;-144.05;64.16;125687.94;5021438;28;20029;-78
2022/11/11 07:06:04;;;;;;;4.05;2.13;;;9.40;99.90;;;-144.05;64.09;125687.94;5002772;28;20053;-79
2022/11/11 07:08:31;;;;;;;6.57;2.53;;;9.30;99.90;;;-144.05;64.11;125687.94;5018851;28;20026;-75
2022/11/11 07:10:57;;;;;;;8.68;2.47;;;9.40;99.90;;;-144.05;63.87;125687.94;5018357;28;20077;-77
2022/11/11 07:13:23;;;;;;;4.50;2.28;;;9.30;99.90;;;-144.05;63.77;125687.94;5018465;28;20069;-76
2022/11/11 07:15:49;;;;;;;6.28;2.47;;;9.30;99.90;;;-144.05;63.80;125687.94;5018823;28;20172;-76
2022/11/11 07:18:15;;;;;;;4.28;2.30;;;9.30;99.90;;;-144.05;63.80;125687.94;5018112;28;20200;-76
2022/11/11 07:20:41;;;;;;;6.97;2.05;;;9.30;99.90;;;-144.05;63.82;125687.94;5018963;28;20038;-76
2022/11/11 07:23:07;;;;;;;6.43;2.75;;;9.30;99.90;;;-144.05;63.79;125687.94;5018562;28;20057;-76
2022/11/11 07:25:34;;;;;;;5.47;2.38;;;9.30;99.90;;;-144.05;63.38;125687.94;5018975;28;20080;-77
2022/11/11 07:28:00;;;;;;;7.82;2.50;;;9.40;99.90;;;-144.05;63.64;125687.94;5018532;28;20049;-78
2022/11/11 07:30:26;;;;;;;4.97;2.53;;;9.30;99.90;;;-144.05;63.74;125687.94;5018379;28;20049;-79
2022/11/11 07:32:53;;;;;;;8.70;2.58;;;9.30;99.90;;;-144.05;64.10;125687.94;5017842;28;20052;-79
2022/11/11 07:35:20;;;;;;;8.18;3.03;;;9.40;99.90;;;-144.05;63.80;125687.94;5000779;28;20033;-78
2022/11/11 07:37:46;;;;;;;4.68;2.00;;;9.40;99.90;;;-144.05;63.26;125687.94;5018435;28;20034;-76
2022/11/11 07:40:16;;;;;;;5.10;2.72;;;9.50;99.90;;;-144.05;63.26;125687.94;5000674;28;20057;-78
2022/11/11 07:42:43;;;;;;;3.90;2.38;;;9.50;99.90;;;-144.05;62.78;125687.94;5016197;28;20513;-77
2022/11/11 07:45:12;;;;;;;4.22;2.08;;;9.60;99.90;;;-144.05;62.52;125687.94;5017904;28;20044;-77
2022/11/11 07:47:42;;;;;;;7.45;2.13;;;9.60;99.90;;;-144.05;62.91;125687.94;5000501;28;20108;-79
2022/11/11 07:50:09;;;;;;;3.90;2.10;;;9.60;99.90;;;-144.05;62.42;125687.94;5001594;28;20121;-77
2022/11/11 07:52:36;;;;;;;5.18;2.00;;;9.70;99.90;;;-144.05;62.40;125687.94;5019552;28;20030;-78
2022/11/11 07:55:05;;;;;;;5.15;2.35;;;9.70;99.90;;;-144.05;61.77;125687.94;5019437;28;20029;-79
2022/11/11 07:57:31;;;;;;;3.85;2.00;;;9.80;99.90;;;-144.05;61.60;125687.94;5000712;28;20493;-76
2022/11/11 07:59:57;;;;;;;6.00;2.60;;;9.80;99.90;;;-144.05;60.86;125687.94;5018736;28;20044;-77
2022/11/11 08:02:23;;;;;;;5.93;2.20;;;9.90;99.90;;;-144.05;60.62;125687.94;5018251;28;20091;-79
2022/11/11 08:04:49;;;;;;;4.88;2.33;;;10.00;99.90;;;-144.05;60.07;125687.94;5001619;28;20030;-79
2022/11/11 08:07:15;;;;;;;5.07;2.00;;;10.00;99.90;;;-144.05;60.55;125687.94;5018982;28;20030;-77
2022/11/11 08:09:41;;;;;;;4.03;2.20;;;10.10;99.90;;;-144.05;60.10;125687.94;5019878;28;20064;-76
2022/11/11 08:14:52;;;;;;;3.13;1.50;;;10.30;99.90;;;-144.05;59.46;125687.94;5018315;28;20060;-77
2022/11/11 08:17:18;;;;;;;3.63;1.42;;;10.30;99.90;;;-144.05;59.09;125687.94;5017767;28;20432;-78
2022/11/11 08:19:44;;;;;;;4.10;1.70;;;10.40;99.90;;;-144.05;58.78;125687.94;5018993;28;20030;-77
2022/11/11 08:22:10;;;;;;;3.72;1.60;;;10.50;99.90;;;-144.05;58.65;125687.94;5018733;28;20080;-75
2022/11/11 08:24:36;;;;;;;4.90;1.77;;;10.60;99.90;;;-144.05;57.79;125687.94;5018807;28;20025;-76
2022/11/11 08:27:01;;;;;;;3.80;1.80;;;10.80;99.90;;;-144.05;57.64;125687.94;5017762;28;20039;-79
2022/11/11 08:29:27;;;;;;;5.47;1.65;;;10.80;99.90;;;-144.05;57.46;125687.94;5000148;28;20053;-77
2022/11/11 08:31:53;;;;;;;3.88;1.77;;;10.90;99.90;;;-144.05;56.96;125687.94;5017514;28;20029;-79
2022/11/11 08:34:19;;;;;;;4.40;1.52;;;11.10;99.90;;;-144.05;57.23;125687.94;5016865;28;20033;-78
2022/11/11 08:36:45;;;;;;;5.25;1.50;;;11.10;99.90;;;-144.05;56.27;125687.94;5018219;28;20073;-76
2022/11/11 08:39:12;;;;;;;3.78;1.70;;;11.30;99.90;;;-144.05;55.81;125687.94;5001112;28;20026;-76
2022/11/11 08:41:38;;;;;;;7.13;1.70;;;11.40;99.90;;;-144.05;55.28;125687.94;5018355;28;20038;-78
2022/11/11 08:44:04;;;;;;;2.75;1.30;;;11.50;99.90;;;-144.05;55.45;125687.94;5000015;28;20025;-79
2022/11/11 08:46:31;;;;;;;7.03;1.67;;;11.60;99.90;;;-144.05;55.43;125687.94;5017526;28;20081;-79
2022/11/11 08:48:57;;;;;;;3.45;1.67;;;11.70;99.90;;;-144.05;54.97;125687.94;5018254;28;20036;-78
2022/11/11 08:51:23;;;;;;;4.70;1.52;;;11.80;99.90;;;-144.05;54.40;125687.94;5000819;28;20049;-78
2022/11/11 08:53:49;;;;;;;5.03;1.63;;;12.00;99.90;;;-144.05;53.69;125687.94;5018703;28;20048;-78
2022/11/11 08:56:14;;;;;;;2.90;1.42;;;12.10;99.90;;;-144.05;53.35;125687.94;5018361;28;20029;-78
2022/11/11 08:58:40;;;;;;;4.22;1.55;;;12.30;99.90;;;-144.05;52.93;125687.94;5017995;28;20033;-79
2022/11/11 09:01:12;;;;;;;5.45;1.55;;;12.50;99.90;;;-144.05;52.82;125687.94;5017898;28;20034;-77
2022/11/11 09:03:42;;;;;;;7.05;2.20;;;12.60;99.90;;;-144.05;51.96;125687.94;5016810;28;20473;-77
2022/11/11 09:06:11;;;;;;;3.20;1.38;;;12.80;99.90;;;-144.05;51.33;125687.94;5016648;28;20072;-77
2022/11/11 09:08:37;;;;;;;3.78;1.50;;;13.00;99.90;;;-144.05;50.63;125687.94;5016937;28;20348;-77
2022/11/11 09:11:03;;;;;;;4.75;1.52;;;13.10;99.90;;;-144.05;50.65;125687.94;5015112;28;20449;-78
2022/11/11 09:13:29;;;;;;;2.72;1.42;;;13.30;99.90;;;-144.05;50.41;125687.94;5015956;28;20460;-78
2022/11/11 09:15:55;;;;;;;3.17;1.67;;;13.40;99.90;;;-144.05;50.22;125687.94;5016616;28;20034;-78
2022/11/11 09:18:21;;;;;;;4.00;1.58;;;13.40;99.90;;;-144.05;50.51;125687.94;5016292;28;20081;-77
2022/11/11 09:20:46;;;;;;;3.15;1.25;;;13.40;99.90;;;-144.05;50.11;125687.94;5016024;28;20056;-79
2022/11/11 09:23:12;;;;;;;6.03;1.50;;;13.50;99.90;;;-144.05;49.76;125687.94;5015835;28;20034;-79
2022/11/11 09:25:38;;;;;;;3.42;1.23;;;13.50;99.90;;;-144.05;49.04;125687.94;4998758;28;20025;-79
2022/11/11 09:28:04;;;;;;;2.05;1.30;;;13.40;99.90;;;-144.05;49.91;125687.94;5015229;28;20064;-76
2022/11/11 09:30:30;;;;;;;3.58;1.13;;;13.30;99.90;;;-144.05;50.51;125687.94;5014836;28;20057;-78
2022/11/11 09:33:03;;;;;;;2.50;1.42;;;13.20;99.90;;;-144.05;50.44;125687.94;5015534;28;20038;-79
2022/11/11 09:35:29;;;;;;;3.95;1.60;;;13.20;99.90;;;-144.05;50.08;125687.94;5015822;28;20133;-78
2022/11/11 09:37:58;;;;;;;3.35;1.60;;;13.20;99.90;;;-144.05;49.84;125687.94;5015007;28;20029;-78
2022/11/11 09:40:43;;;;;;;5.50;1.30;;;13.30;99.90;;;-144.05;50.36;125687.94;5015926;28;20096;-76
2022/11/11 09:43:20;;;;;;;3.38;1.38;;;13.30;99.90;;;-144.05;49.92;125687.94;5016107;28;20394;-78
2022/11/11 09:46:40;;;;;;;4.85;1.90;;;13.30;99.90;;;-144.05;50.38;125687.94;5015756;28;20057;-75
2022/11/11 09:49:50;;;;;;;4.13;1.30;;;13.20;99.90;;;-144.05;50.43;125687.94;4998634;28;20504;-77
2022/11/11 09:52:22;;;;;;;5.22;1.70;;;13.30;99.90;;;-144.05;50.39;125687.94;5015672;28;20133;-78
2022/11/11 09:55:08;;;;;;;4.90;1.67;;;13.60;99.90;;;-144.05;49.26;125687.94;5015357;28;20518;-76
2022/11/11 09:57:47;;;;;;;8.30;1.98;;;13.70;99.90;;;-144.05;48.76;125687.94;5015838;28;20084;-78
2022/11/11 10:00:23;;;;;;;7.20;1.50;;;14.00;99.90;;;-144.05;48.56;125687.94;5014485;28;20080;-78
2022/11/11 10:03:05;;;;;;;2.78;1.30;;;14.30;99.90;;;-144.05;46.95;125687.94;5014993;28;20042;-77
2022/11/11 10:06:13;;;;;;;5.63;1.65;;;14.50;99.90;;;-144.05;47.15;125687.94;5014666;28;20021;-76
2022/11/11 10:09:06;;;;;;;4.97;1.33;;;14.50;99.90;;;-144.05;47.85;125687.94;5015154;28;20072;-78
2022/11/11 10:11:59;;;;;;;4.93;1.42;;;14.20;99.90;;;-144.05;48.39;125687.94;5014417;28;20113;-77
2022/11/11 10:14:37;;;;;;;3.08;1.48;;;14.10;99.90;;;-144.05;49.30;125687.94;5014640;28;20038;-75
2022/11/11 10:17:48;;;;;;;3.10;1.38;;;13.90;99.90;;;-144.05;48.46;125687.94;5015474;28;20038;-78
2022/11/11 10:20:29;;;;;;;3.33;1.58;;;13.90;99.90;;;-144.05;48.87;125687.94;5015685;28;20025;-79
2022/11/11 10:23:20;;;;;;;5.35;1.25;;;13.90;99.90;;;-144.05;48.24;125687.94;5015037;28;20030;-78
2022/11/11 10:25:56;;;;;;;2.58;1.25;;;13.90;99.90;;;-144.05;48.99;125687.94;5014350;28;20103;-77
2022/11/11 10:28:34;;;;;;;2.53;1.02;;;14.00;99.90;;;-144.05;49.01;125687.94;4996935;28;20030;-75
2022/11/11 10:31:09;;;;;;;3.85;1.20;;;13.90;99.90;;;-144.05;48.21;125687.94;5014302;28;20165;-75
2022/11/11 10:34:16;;;;;;;3.60;1.45;;;14.00;99.90;;;-144.05;48.75;125687.94;5013147;28;20033;-75
2022/11/11 10:36:53;;;;;;;4.40;1.40;;;14.10;99.90;;;-144.05;48.23;125687.94;5002562;28;20038;-75
2022/11/11 10:40:02;;;;;;;2.60;1.20;;;14.20;99.90;;;-144.05;47.65;125687.94;5013861;28;20405;-77
2022/11/11 10:42:28;;;;;;;5.22;1.33;;;14.20;99.90;;;-144.05;48.23;125687.94;5012784;28;20128;-76
2022/11/11 10:45:01;;;;;;;3.53;1.42;;;14.30;99.90;;;-144.05;47.50;125687.94;5013975;28;20068;-75
2022/11/11 10:47:48;;;;;;;4.20;0.95;;;14.40;99.90;;;-144.05;47.38;125687.94;4996559;28;20030;-77
2022/11/11 10:50:33;;;;;;;4.82;1.70;;;14.60;99.90;;;-144.05;46.76;125687.94;5014058;28;20037;-77
2022/11/11 10:53:39;;;;;;;3.50;1.30;;;14.60;99.90;;;-144.05;47.14;125687.94;5013373;28;20033;-77
2022/11/11 10:56:53;;;;;;;4.10;1.20;;;14.70;99.90;;;-144.05;47.19;125687.94;4996567;28;20512;-76
2022/11/11 10:59:36;;;;;;;2.28;0.98;;;14.70;99.90;;;-144.05;46.87;125687.94;4996558;28;20026;-77
2022/11/11 11:02:45;;;;;;;3.47;1.15;;;14.80;99.90;;;-144.05;46.90;125687.94;5014773;28;20470;-77
2022/11/11 11:05:32;;;;;;;3.22;1.23;;;14.90;99.90;;;-144.05;47.75;125687.94;5014340;28;20100;-76
2022/11/11 11:08:18;;;;;;;3.60;1.30;;;14.90;99.90;;;-144.05;47.03;125687.94;5014866;28;20350;-77
2022/11/11 11:11:03;;;;;;;2.50;1.20;;;14.80;99.90;;;-144.05;46.89;125687.94;5012731;28;20065;-77
2022/11/11 11:13:43;;;;;;;5.55;1.42;;;15.00;99.90;;;-144.05;46.28;125687.94;4996211;28;20076;-77
2022/11/11 11:16:21;;;;;;;5.28;1.52;;;15.00;99.90;;;-144.05;46.69;125687.94;5014458;28;20042;-77
2022/11/11 11:19:24;;;;;;;2.38;1.08;;;15.10;99.90;;;-144.05;45.90;125687.94;5014524;28;20030;-79
2022/11/11 11:22:03;;;;;;;1.70;1.33;;;15.30;99.90;;;-144.05;46.16;125687.94;5015565;28;20033;-76
2022/11/11 11:24:35;;;;;;;3.13;1.48;;;15.50;99.90;;;-144.05;45.77;125687.94;5018032;28;20034;-73